Time;durP1;ratioP1;P1;durP2;ratioP2;P2;SDS_P1;SDS_P2;PMS_P1;PMS_P2;Temp;Humidity;BMP_temperature;BMP_pressure;BME280_temperature;BME280_humidity;BME280_pressure;Samples;Min_cycle;Max_cycle;Signal;HPM_P1;HPM_P2
2021/12/08 00:01:13;;;;;;;13.63;6.60;;;;;;;-139.48;100.00;61774.03;5032351;28;20004;-67
2021/12/08 00:03:57;;;;;;;13.25;5.70;;;;;;;-139.48;100.00;61774.03;5032360;28;20419;-68
2021/12/08 00:06:41;;;;;;;12.77;6.07;;;;;;;-139.48;100.00;61774.03;5032675;28;20068;-66
2021/12/08 00:09:35;;;;;;;10.32;4.85;;;;;;;-139.48;100.00;61774.03;5017406;28;20522;-67
2021/12/08 00:15:21;;;;;;;7.65;5.13;;;;;;;-139.48;100.00;61774.03;5019727;28;20103;-66
2021/12/08 00:18:10;;;;;;;8.00;4.88;;;;;;;-139.48;100.00;61774.03;5032524;28;20055;-66
2021/12/08 00:20:57;;;;;;;7.25;5.00;;;;;;;-139.48;100.00;61774.03;5017254;28;20049;-68
2021/12/08 00:23:41;;;;;;;6.25;4.38;;;;;;;-139.48;100.00;61774.03;5017311;28;20437;-67
2021/12/08 00:26:25;;;;;;;9.13;4.63;;;;;;;-139.48;100.00;61774.03;5017360;28;20521;-68
2021/12/08 00:29:09;;;;;;;;;;;;;;;-139.48;100.00;61774.03;5017804;28;20517;-67
2021/12/08 00:31:53;;;;;;;8.60;4.88;;;;;;;-139.48;100.00;61774.03;5017651;28;20409;-67
2021/12/08 00:34:38;;;;;;;;;;;;;;;-139.48;100.00;61774.03;5003819;28;20044;-67
2021/12/08 00:37:23;;;;;;;;;;;;;;;-139.48;100.00;61774.03;5017807;28;19939;-67
2021/12/08 00:40:10;;;;;;;12.35;5.10;;;;;;;-139.48;100.00;61774.03;5034707;28;19920;-67
2021/12/08 00:42:54;;;;;;;10.05;5.18;;;;;;;-139.48;100.00;61774.03;5007075;28;20053;-67
2021/12/08 00:45:38;;;;;;;7.30;4.85;;;;;;;-139.48;100.00;61774.03;5020527;28;20060;-67
2021/12/08 00:48:22;;;;;;;8.77;4.97;;;;;;;-139.48;100.00;61774.03;5020874;28;20048;-67
2021/12/08 00:51:06;;;;;;;7.40;4.50;;;;;;;-139.48;100.00;61774.03;5020821;28;20450;-67
2021/12/08 00:53:50;;;;;;;7.05;4.20;;;;;;;-139.48;100.00;61774.03;5035661;28;20551;-66
2021/12/08 00:56:34;;;;;;;8.98;5.15;;;;;;;-139.48;100.00;61774.03;5035662;28;20041;-67
2021/12/08 00:59:18;;;;;;;10.10;4.72;;;;;;;-139.48;100.00;61774.03;5035655;28;20517;-66
2021/12/08 01:02:02;;;;;;;8.80;5.38;;;;;;;-139.48;100.00;61774.03;5035687;28;20063;-66
2021/12/08 01:04:47;;;;;;;7.35;4.97;;;;;;;-139.48;100.00;61774.03;5020671;28;20133;-66
2021/12/08 01:07:30;;;;;;;8.60;4.50;;;;;;;-139.48;100.00;61774.03;5020446;28;20076;-66
2021/12/08 01:10:21;;;;;;;8.38;4.90;;;;;;;-139.48;100.00;61774.03;5020648;28;20064;-66
2021/12/08 01:13:08;;;;;;;9.73;4.78;;;;;;;-139.48;100.00;61774.03;5020608;28;20094;-67
2021/12/08 01:15:55;;;;;;;7.70;4.85;;;;;;;-139.48;100.00;61774.03;5020420;28;20080;-66
2021/12/08 01:18:39;;;;;;;8.88;5.28;;;;;;;-139.48;100.00;61774.03;5020002;28;20568;-68
2021/12/08 01:21:23;;;;;;;9.13;5.07;;;;;;;-139.48;100.00;61774.03;5035293;28;20498;-67
2021/12/08 01:24:07;;;;;;;10.05;5.20;;;;;;;-139.48;100.00;61774.03;5006346;28;20115;-67
2021/12/08 01:26:51;;;;;;;11.20;5.68;;;;;;;-139.48;100.00;61774.03;5005980;28;20553;-66
2021/12/08 01:29:35;;;;;;;9.38;5.20;;;;;;;-139.48;100.00;61774.03;5020027;28;20531;-67
2021/12/08 01:32:20;;;;;;;8.57;5.05;;;;;;;-139.48;100.00;61774.03;5019721;28;20068;-66
2021/12/08 01:35:06;;;;;;;7.75;4.95;;;;;;;-139.48;100.00;61774.03;5020027;28;20088;-68
2021/12/08 01:37:50;;;;;;;11.05;5.93;;;;;;;-139.48;100.00;61774.03;5019665;28;20133;-67
2021/12/08 01:40:34;;;;;;;;;;;;;;;-139.48;100.00;61774.03;5020228;28;20048;-67
2021/12/08 01:43:27;;;;;;;9.53;5.33;;;;;;;-139.48;100.00;61774.03;5019808;28;19971;-65
2021/12/08 01:46:13;;;;;;;9.48;5.65;;;;;;;-139.48;100.00;61774.03;5034696;28;20734;-68
2021/12/08 01:48:57;;;;;;;8.07;5.15;;;;;;;-139.48;100.00;61774.03;5042295;22;20084;-68
2021/12/08 01:51:41;;;;;;;12.23;5.88;;;;;;;-139.48;100.00;61774.03;5005450;28;20060;-68
2021/12/08 01:54:25;;;;;;;10.68;5.68;;;;;;;-139.48;100.00;61774.03;5034574;28;20121;-68
2021/12/08 01:57:09;;;;;;;9.65;5.72;;;;;;;-139.48;100.00;61774.03;5034862;28;20156;-68
2021/12/08 01:59:53;;;;;;;9.15;5.10;;;;;;;-139.48;100.00;61774.03;4999651;28;20052;-70
2021/12/08 02:02:37;;;;;;;;;;;;;;;-139.48;100.00;61774.03;5015413;28;20053;-70
2021/12/08 02:05:21;;;;;;;11.10;6.10;;;;;;;-139.48;100.00;61774.03;4999529;28;19924;-70
2021/12/08 02:08:05;;;;;;;13.02;6.38;;;;;;;-139.48;100.00;61774.03;5013743;28;20096;-70
2021/12/08 02:10:49;;;;;;;7.50;5.25;;;;;;;-139.48;100.00;61774.03;5013578;28;20145;-68
2021/12/08 02:13:37;;;;;;;11.20;6.55;;;;;;;-139.48;100.00;61774.03;5013256;28;20509;-70
2021/12/08 02:16:21;;;;;;;12.73;6.40;;;;;;;-139.48;100.00;61774.03;5013367;28;20510;-70
2021/12/08 02:19:06;;;;;;;11.35;5.35;;;;;;;-139.48;100.00;61774.03;5014244;28;20049;-68
2021/12/08 02:21:53;;;;;;;9.73;5.85;;;;;;;-139.48;100.00;61774.03;5013347;28;20041;-68
2021/12/08 02:24:37;;;;;;;9.48;5.38;;;;;;;-139.48;100.00;61774.03;5013382;28;20088;-68
2021/12/08 02:27:21;;;;;;;8.57;5.63;;;;;;;-139.48;100.00;61774.03;5013100;28;20521;-70
2021/12/08 02:30:16;;;;;;;11.77;6.47;;;;;;;-139.48;100.00;61774.03;5013221;28;20511;-69
2021/12/08 02:48:16;;;;;;;10.07;4.93;;;;;;;-139.48;100.00;61774.03;5001710;28;20052;-68
2021/12/08 02:51:00;;;;;;;7.70;5.90;;;;;;;-139.48;100.00;61774.03;4999034;28;20080;-68
2021/12/08 02:53:44;;;;;;;10.68;6.25;;;;;;;-139.48;100.00;61774.03;5013911;28;20098;-68
2021/12/08 02:56:30;;;;;;;13.32;5.78;;;;;;;-139.48;100.00;61774.03;5012540;28;20422;-68
2021/12/08 02:59:14;;;;;;;7.25;5.07;;;;;;;-139.48;100.00;61774.03;5012476;28;20056;-68
2021/12/08 03:01:58;;;;;;;10.57;6.15;;;;;;;-139.48;100.00;61774.03;4998368;28;20045;-68
2021/12/08 03:04:42;;;;;;;9.77;5.85;;;;;;;-139.48;100.00;61774.03;5012675;28;20049;-68
2021/12/08 03:07:26;;;;;;;9.23;5.93;;;;;;;-139.48;100.00;61774.03;5012554;28;20506;-68
2021/12/08 03:10:18;;;;;;;9.07;5.70;;;;;;;-139.48;100.00;61774.03;5012250;28;20083;-68
2021/12/08 03:13:03;;;;;;;8.95;5.82;;;;;;;-139.48;100.00;61774.03;5013360;28;20049;-68
2021/12/08 03:15:47;;;;;;;12.63;6.18;;;;;;;-139.48;100.00;61774.03;4998494;28;20095;-68
2021/12/08 03:18:34;;;;;;;11.25;6.82;;;;;;;-139.48;100.00;61774.03;5013215;28;20092;-68
2021/12/08 03:21:18;;;;;;;8.48;6.22;;;;;;;-139.48;100.00;61774.03;5012246;28;20137;-68
2021/12/08 03:24:19;;;;;;;10.45;6.45;;;;;;;-139.48;100.00;61774.03;5012321;28;20063;-68
2021/12/08 03:27:09;;;;;;;9.82;6.30;;;;;;;-139.48;100.00;61774.03;5012494;28;20421;-68
2021/12/08 03:32:39;;;;;;;11.48;6.85;;;;;;;-139.48;100.00;61774.03;5013553;28;20096;-68
2021/12/08 03:35:24;;;;;;;10.05;6.25;;;;;;;-139.48;100.00;61774.03;5012026;28;20116;-68
2021/12/08 03:38:08;;;;;;;11.88;7.53;;;;;;;-139.48;100.00;61774.03;5012001;28;20572;-68
2021/12/08 03:40:53;;;;;;;;;;;;;;;-139.48;100.00;61774.03;5012550;28;20069;-68
2021/12/08 03:43:37;;;;;;;11.35;7.18;;;;;;;-139.48;100.00;61774.03;5012051;28;20024;-68
2021/12/08 03:46:26;;;;;;;;;;;;;;;-139.48;100.00;61774.03;5012380;28;20099;-68
2021/12/08 03:49:14;;;;;;;9.70;6.30;;;;;;;-139.48;100.00;61774.03;5011928;28;20298;-68
2021/12/08 03:52:02;;;;;;;10.32;6.57;;;;;;;-139.48;100.00;61774.03;4998124;28;20129;-68
2021/12/08 03:54:46;;;;;;;16.65;7.18;;;;;;;-139.48;100.00;61774.03;5011630;28;20564;-68
2021/12/08 03:57:30;;;;;;;10.73;7.22;;;;;;;-139.48;100.00;61774.03;5011873;28;20655;-68
2021/12/08 04:00:19;;;;;;;11.77;7.40;;;;;;;-139.48;100.00;61774.03;5011982;28;20053;-68
2021/12/08 04:03:06;;;;;;;12.57;7.28;;;;;;;-139.48;100.00;61774.03;5012868;28;20045;-68
2021/12/08 04:05:56;;;;;;;9.40;6.63;;;;;;;-139.48;100.00;61774.03;5012675;28;20096;-68
2021/12/08 04:08:44;;;;;;;16.55;8.07;;;;;;;-139.48;100.00;61774.03;5011615;28;20419;-68
2021/12/08 04:11:28;;;;;;;12.90;7.25;;;;;;;-139.48;100.00;61774.03;5012004;28;20065;-68
2021/12/08 04:14:16;;;;;;;9.50;7.13;;;;;;;-139.48;100.00;61774.03;5014277;28;20148;-68
2021/12/08 04:16:59;;;;;;;12.50;7.53;;;;;;;-139.48;100.00;61774.03;5001603;28;20065;-68
2021/12/08 04:19:45;;;;;;;13.73;7.20;;;;;;;-139.48;100.00;61774.03;5016429;28;20048;-68
2021/12/08 04:22:32;;;;;;;9.60;6.70;;;;;;;-139.48;100.00;61774.03;5015828;28;20056;-68
2021/12/08 04:25:21;;;;;;;13.07;7.47;;;;;;;-139.48;100.00;61774.03;5015603;28;20111;-69
2021/12/08 04:28:09;;;;;;;12.70;6.53;;;;;;;-139.48;100.00;61774.03;5015349;28;20052;-69
2021/12/08 04:31:03;;;;;;;12.07;7.15;;;;;;;-139.48;100.00;61774.03;5015393;28;20518;-69
2021/12/08 04:33:53;;;;;;;12.90;8.00;;;;;;;-139.48;100.00;61774.03;5015647;28;20099;-69
2021/12/08 04:36:43;;;;;;;11.80;6.97;;;;;;;-139.48;100.00;61774.03;5016069;28;20072;-69
2021/12/08 04:39:45;;;;;;;15.20;7.85;;;;;;;-139.48;100.00;61774.03;5016014;28;20049;-69
2021/12/08 04:42:52;;;;;;;13.05;7.40;;;;;;;-139.48;100.00;61774.03;5016082;28;20430;-69
2021/12/08 04:45:52;;;;;;;15.02;7.72;;;;;;;-139.48;100.00;61774.03;5015655;28;20101;-69
2021/12/08 04:49:15;;;;;;;12.75;7.80;;;;;;;-139.48;100.00;61774.03;5014743;28;20104;-69
2021/12/08 04:52:08;;;;;;;13.68;7.70;;;;;;;-139.48;100.00;61774.03;5015736;28;20052;-71
2021/12/08 05:01:22;;;;;;;13.57;8.05;;;;;;;-139.48;100.00;61774.03;5015036;28;20057;-68
2021/12/08 05:04:31;;;;;;;15.88;8.75;;;;;;;-139.48;100.00;61774.03;5014619;28;20045;-68
2021/12/08 05:07:48;;;;;;;18.05;9.35;;;;;;;-139.48;100.00;61774.03;5014692;28;20057;-68
2021/12/08 05:10:35;;;;;;;17.52;10.63;;;;;;;-139.48;100.00;61774.03;5014700;28;20045;-68
2021/12/08 05:13:20;;;;;;;20.85;10.73;;;;;;;-139.48;100.00;61774.03;5000775;28;20099;-68
2021/12/08 05:16:04;;;;;;;23.50;10.57;;;;;;;-139.48;100.00;61774.03;5014489;28;20116;-68
2021/12/08 05:18:49;;;;;;;14.55;9.38;;;;;;;-139.48;100.00;61774.03;5014301;28;20045;-68
2021/12/08 05:21:36;;;;;;;11.57;8.27;;;;;;;-139.48;100.00;61774.03;5014392;28;20053;-68
2021/12/08 05:24:34;;;;;;;11.68;8.60;;;;;;;-139.48;100.00;61774.03;5015175;28;20061;-70
2021/12/08 05:27:29;;;;;;;20.13;9.27;;;;;;;-139.48;100.00;61774.03;5000261;28;20466;-68
2021/12/08 05:30:22;;;;;;;12.85;8.02;;;;;;;-139.48;100.00;61774.03;5015167;28;20041;-70
2021/12/08 05:33:07;;;;;;;15.52;8.35;;;;;;;-139.48;100.00;61774.03;5000490;28;20143;-68
2021/12/08 05:35:52;;;;;;;15.90;8.60;;;;;;;-139.48;100.00;61774.03;5014940;28;20048;-68
2021/12/08 05:38:38;;;;;;;15.30;9.48;;;;;;;-139.48;100.00;61774.03;5014026;28;20045;-68
2021/12/08 05:41:28;;;;;;;14.63;9.38;;;;;;;-139.48;100.00;61774.03;5014122;28;20522;-68
2021/12/08 05:44:12;;;;;;;13.55;8.90;;;;;;;-139.48;100.00;61774.03;5014295;28;20092;-68
2021/12/08 05:46:58;;;;;;;13.95;7.68;;;;;;;-139.48;100.00;61774.03;5013858;28;20040;-68
2021/12/08 05:49:42;;;;;;;16.02;8.57;;;;;;;-139.48;100.00;61774.03;5014596;28;20152;-68
2021/12/08 05:52:27;;;;;;;16.65;9.55;;;;;;;-139.48;100.00;61774.03;5013647;28;20059;-68
2021/12/08 05:55:11;;;;;;;14.05;8.98;;;;;;;-139.48;100.00;61774.03;5014734;28;20045;-68
2021/12/08 05:57:57;;;;;;;13.27;9.40;;;;;;;-139.48;100.00;61774.03;5014684;28;20049;-68
2021/12/08 06:00:43;;;;;;;16.35;10.45;;;;;;;-139.48;100.00;61774.03;5013480;28;20137;-68
2021/12/08 06:03:28;;;;;;;16.55;10.75;;;;;;;-139.48;100.00;61774.03;5014491;28;20092;-68
2021/12/08 06:06:12;;;;;;;17.55;10.40;;;;;;;-139.48;100.00;61774.03;5013957;28;20104;-68
2021/12/08 06:08:57;;;;;;;17.63;10.27;;;;;;;-139.48;100.00;61774.03;5013592;28;20053;-68
2021/12/08 06:11:42;;;;;;;14.30;9.27;;;;;;;-139.48;100.00;61774.03;5013301;28;20581;-68
2021/12/08 06:14:32;;;;;;;12.38;8.38;;;;;;;-139.48;100.00;61774.03;5013678;28;20113;-68
2021/12/08 06:17:18;;;;;;;16.52;10.27;;;;;;;-139.48;100.00;61774.03;5013684;28;20537;-68
2021/12/08 06:20:05;;;;;;;15.32;10.13;;;;;;;-139.48;100.00;61774.03;5013394;28;20092;-68
2021/12/08 06:22:51;;;;;;;15.10;10.55;;;;;;;-139.48;100.00;61774.03;5014265;28;20044;-68
2021/12/08 06:25:35;;;;;;;20.73;11.05;;;;;;;-139.48;100.00;61774.03;5013507;28;20095;-68
2021/12/08 06:28:19;;;;;;;20.50;10.23;;;;;;;-139.48;100.00;61774.03;5014048;28;20049;-68
2021/12/08 06:31:05;;;;;;;19.52;10.02;;;;;;;-139.48;100.00;61774.03;5013156;28;20056;-69
2021/12/08 06:33:49;;;;;;;17.90;11.25;;;;;;;-139.48;100.00;61774.03;4999253;28;20100;-68
2021/12/08 06:36:38;;;;;;;16.98;11.05;;;;;;;-139.48;100.00;61774.03;5012743;28;20049;-70
2021/12/08 06:39:34;;;;;;;17.92;10.32;;;;;;;-139.48;100.00;61774.03;5012922;28;20569;-68
2021/12/08 06:42:21;;;;;;;17.67;9.82;;;;;;;-139.48;100.00;61774.03;5012736;28;20056;-68
2021/12/08 06:45:18;;;;;;;15.60;10.50;;;;;;;-139.48;100.00;61774.03;5012851;28;20415;-68
2021/12/08 06:48:09;;;;;;;19.92;10.63;;;;;;;-139.48;100.00;61774.03;5012454;28;20045;-68
2021/12/08 06:51:00;;;;;;;19.35;10.68;;;;;;;-139.48;100.00;61774.03;5012880;28;20072;-68
2021/12/08 06:53:46;;;;;;;18.40;10.68;;;;;;;-139.48;100.00;61774.03;4999032;28;20073;-68
2021/12/08 06:56:35;;;;;;;21.80;11.00;;;;;;;-139.48;100.00;61774.03;5012669;28;20053;-68
2021/12/08 06:59:26;;;;;;;17.17;10.20;;;;;;;-139.48;100.00;61774.03;5013472;28;20040;-68
2021/12/08 07:02:19;;;;;;;21.67;11.38;;;;;;;-139.48;100.00;61774.03;5013610;28;20188;-68
2021/12/08 07:05:24;;;;;;;18.05;11.70;;;;;;;-139.48;100.00;61774.03;5013590;28;20160;-68
2021/12/08 07:08:09;;;;;;;22.70;12.27;;;;;;;-139.48;100.00;61774.03;5013652;28;20411;-70
2021/12/08 07:10:56;;;;;;;20.10;11.57;;;;;;;-139.48;100.00;61774.03;4998362;28;20089;-70
2021/12/08 07:13:40;;;;;;;17.70;10.45;;;;;;;-139.48;100.00;61774.03;5012521;28;20099;-70
2021/12/08 07:16:26;;;;;;;;;;;;;;;-139.48;100.00;61774.03;5012784;28;20057;-70
2021/12/08 07:19:32;;;;;;;22.92;11.23;;;;;;;-139.48;100.00;61774.03;5013174;28;19920;-70
2021/12/08 07:22:25;;;;;;;19.80;11.10;;;;;;;-139.48;100.00;61774.03;5012180;28;20045;-68
2021/12/08 07:25:12;;;;;;;20.20;12.57;;;;;;;-139.48;100.00;61774.03;4998798;28;20076;-68
2021/12/08 07:27:56;;;;;;;17.95;12.38;;;;;;;-139.48;100.00;61774.03;5012150;28;20240;-68
2021/12/08 07:30:46;;;;;;;17.67;11.38;;;;;;;-139.48;100.00;61774.03;5012978;28;20095;-68
2021/12/08 07:33:30;;;;;;;22.65;11.50;;;;;;;-139.48;100.00;61774.03;5013223;28;20129;-68
2021/12/08 07:36:17;;;;;;;20.25;11.70;;;;;;;-139.48;100.00;61774.03;5011898;28;20064;-70
2021/12/08 07:39:06;;;;;;;19.67;11.68;;;;;;;-139.48;100.00;61774.03;4998027;28;20080;-70
2021/12/08 07:41:53;;;;;;;16.80;10.07;;;;;;;-139.48;100.00;61774.03;5012077;28;20052;-68
2021/12/08 07:44:37;;;;;;;20.05;11.18;;;;;;;-139.48;100.00;61774.03;5011810;28;20088;-68
2021/12/08 07:47:23;;;;;;;15.18;10.80;;;;;;;-139.48;100.00;61774.03;5012090;28;20100;-68
2021/12/08 07:50:30;;;;;;;19.13;11.25;;;;;;;-139.48;100.00;61774.03;5011945;28;20052;-68
2021/12/08 07:53:16;;;;;;;18.40;10.98;;;;;;;-139.48;100.00;61774.03;5011988;28;20517;-68
2021/12/08 07:56:04;;;;;;;18.83;10.18;;;;;;;-139.48;100.00;61774.03;5011647;28;20525;-68
2021/12/08 07:58:54;;;;;;;18.55;10.80;;;;;;;-139.48;100.00;61774.03;5011934;28;20053;-68
2021/12/08 08:01:42;;;;;;;17.13;10.57;;;;;;;-139.48;100.00;61774.03;5012965;28;20057;-66
2021/12/08 08:04:27;;;;;;;15.57;10.23;;;;;;;-139.48;100.00;61774.03;5012977;28;20426;-66
2021/12/08 08:07:11;;;;;;;17.17;11.05;;;;;;;-139.48;100.00;61774.03;5011705;28;20129;-66
2021/12/08 08:10:01;;;;;;;19.00;12.00;;;;;;;-139.48;100.00;61774.03;5011639;28;20068;-66
2021/12/08 08:12:47;;;;;;;20.73;12.15;;;;;;;-139.48;100.00;61774.03;5011608;28;20049;-66
2021/12/08 08:15:36;;;;;;;16.80;11.27;;;;;;;-139.48;100.00;61774.03;4997565;28;20053;-66
2021/12/08 08:18:25;;;;;;;18.90;11.20;;;;;;;-139.48;100.00;61774.03;5011515;28;20418;-66
2021/12/08 08:21:16;;;;;;;20.15;11.70;;;;;;;-139.48;100.00;61774.03;5012673;28;20100;-66
2021/12/08 08:24:00;;;;;;;18.10;11.88;;;;;;;-139.48;100.00;61774.03;5012634;28;20064;-66
2021/12/08 08:26:48;;;;;;;20.17;11.68;;;;;;;-139.48;100.00;61774.03;4997746;28;20049;-66
2021/12/08 08:29:32;;;;;;;15.50;10.30;;;;;;;-139.48;100.00;61774.03;4997484;28;20092;-66
2021/12/08 08:32:26;;;;;;;19.95;10.75;;;;;;;-139.48;100.00;61774.03;5011636;28;20080;-66
2021/12/08 08:35:20;;;;;;;20.83;10.75;;;;;;;-139.48;100.00;61774.03;5011358;28;20129;-66
2021/12/08 08:38:08;;;;;;;18.23;11.63;;;;;;;-139.48;100.00;61774.03;5011399;28;20045;-67
2021/12/08 08:41:02;;;;;;;20.48;11.45;;;;;;;-139.48;100.00;61774.03;5011473;28;20049;-67
2021/12/08 08:43:47;;;;;;;17.65;11.05;;;;;;;-139.48;100.00;61774.03;5011488;28;20514;-67
2021/12/08 08:46:38;;;;;;;19.52;12.32;;;;;;;-139.48;100.00;61774.03;5012267;28;20498;-67
2021/12/08 08:49:25;;;;;;;21.10;12.80;;;;;;;-139.48;100.00;61774.03;4997369;28;20103;-67
2021/12/08 08:52:14;;;;;;;23.02;14.00;;;;;;;-139.48;100.00;61774.03;5011218;28;20052;-67
2021/12/08 08:55:16;;;;;;;21.80;13.10;;;;;;;-139.48;100.00;61774.03;5011238;28;20135;-67
2021/12/08 08:58:02;;;;;;;22.35;15.18;;;;;;;-139.48;100.00;61774.03;5011206;28;20399;-67
2021/12/08 09:00:54;;;;;;;21.85;12.90;;;;;;;-139.48;100.00;61774.03;5013072;28;20083;-67
2021/12/08 09:03:39;;;;;;;17.85;11.35;;;;;;;-139.48;100.00;61774.03;5000563;28;20486;-67
2021/12/08 09:06:28;;;;;;;20.85;13.25;;;;;;;-139.48;100.00;61774.03;5014791;28;20128;-67
2021/12/08 09:09:23;;;;;;;20.17;13.32;;;;;;;-139.48;100.00;61774.03;5000658;28;20049;-67
2021/12/08 09:12:25;;;;;;;23.58;12.93;;;;;;;-139.48;100.00;61774.03;5014460;28;20052;-68
2021/12/08 09:15:14;;;;;;;22.15;12.88;;;;;;;-139.48;100.00;61774.03;5014518;28;20103;-67
2021/12/08 09:18:12;;;;;;;21.33;13.30;;;;;;;-139.48;100.00;61774.03;5000802;28;20052;-68
2021/12/08 09:21:20;;;;;;;21.70;12.82;;;;;;;-139.48;100.00;61774.03;5014317;28;20044;-67
2021/12/08 09:24:08;;;;;;;21.38;13.48;;;;;;;-139.48;100.00;61774.03;5000566;28;20107;-67
2021/12/08 09:26:54;;;;;;;22.75;13.68;;;;;;;-139.48;100.00;61774.03;5014436;28;20178;-67
2021/12/08 09:29:55;;;;;;;20.95;13.88;;;;;;;-139.48;100.00;61774.03;5015545;28;20048;-67
2021/12/08 09:32:46;;;;;;;19.45;12.98;;;;;;;-139.48;100.00;61774.03;5014037;28;20092;-67
2021/12/08 09:35:44;;;;;;;21.65;12.98;;;;;;;-139.48;100.00;61774.03;5000054;28;20106;-67
2021/12/08 09:38:42;;;;;;;19.38;12.70;;;;;;;-139.48;100.00;61774.03;5015090;28;20172;-67
2021/12/08 09:41:40;;;;;;;20.67;13.43;;;;;;;-139.48;100.00;61774.03;5013877;28;20457;-67
2021/12/08 09:44:29;;;;;;;20.23;12.80;;;;;;;-139.48;100.00;61774.03;5000094;28;20048;-67
2021/12/08 09:47:14;;;;;;;16.35;12.02;;;;;;;-139.48;100.00;61774.03;5013770;28;20064;-67
2021/12/08 09:50:00;;;;;;;22.75;12.93;;;;;;;-139.48;100.00;61774.03;4999995;28;20457;-69
2021/12/08 09:52:45;;;;;;;21.88;12.75;;;;;;;-139.48;100.00;61774.03;5013858;28;20080;-69
2021/12/08 09:55:30;;;;;;;20.13;12.60;;;;;;;-139.48;100.00;61774.03;5013815;28;20104;-69
2021/12/08 09:58:15;;;;;;;20.80;12.35;;;;;;;-139.48;100.00;61774.03;5013674;28;20048;-69
2021/12/08 10:01:00;;;;;;;19.15;12.77;;;;;;;-139.48;100.00;61774.03;5013963;28;20045;-69
2021/12/08 10:03:45;;;;;;;19.15;12.52;;;;;;;-139.48;100.00;61774.03;5013956;28;20509;-69
2021/12/08 10:06:29;;;;;;;18.48;12.82;;;;;;;-139.48;100.00;61774.03;5013409;28;20060;-69
2021/12/08 10:09:13;;;;;;;19.17;12.93;;;;;;;-139.48;100.00;61774.03;5013317;28;20367;-69
2021/12/08 10:11:57;;;;;;;;;;;;;;;-139.48;100.00;61774.03;5000136;28;20411;-69
2021/12/08 10:14:41;;;;;;;19.08;13.02;;;;;;;-139.48;100.00;61774.03;5013227;28;19925;-69
2021/12/08 10:17:26;;;;;;;18.15;12.25;;;;;;;-139.48;100.00;61774.03;5013359;28;20116;-69
2021/12/08 10:20:14;;;;;;;19.10;12.57;;;;;;;-139.48;100.00;61774.03;5013641;28;20406;-68
2021/12/08 10:23:19;;;;;;;18.95;12.07;;;;;;;-139.48;100.00;61774.03;5013352;28;20048;-69
2021/12/08 10:26:21;;;;;;;18.42;13.07;;;;;;;-139.48;100.00;61774.03;5013338;28;20048;-69
2021/12/08 10:29:06;;;;;;;23.65;13.02;;;;;;;-139.48;100.00;61774.03;4999094;28;20133;-69
2021/12/08 10:31:53;;;;;;;22.83;14.38;;;;;;;-139.48;100.00;61774.03;5013251;28;20521;-69
2021/12/08 10:34:48;;;;;;;21.13;14.27;;;;;;;-139.48;100.00;61774.03;5013939;28;20529;-69
2021/12/08 10:37:32;;;;;;;20.77;14.50;;;;;;;-139.48;100.00;61774.03;5013120;28;20088;-69
2021/12/08 10:40:16;;;;;;;23.63;15.50;;;;;;;-139.48;100.00;61774.03;5013064;28;20571;-69
2021/12/08 10:43:12;;;;;;;23.02;14.05;;;;;;;-139.48;100.00;61774.03;5013185;28;20121;-69
2021/12/08 10:46:07;;;;;;;24.80;15.30;;;;;;;-139.48;100.00;61774.03;4999125;28;20151;-69
2021/12/08 10:48:53;;;;;;;20.80;13.68;;;;;;;-139.48;100.00;61774.03;4998869;28;20057;-69
2021/12/08 10:54:46;;;;;;;20.80;14.05;;;;;;;-139.48;100.00;61774.03;5012654;28;20053;-69
2021/12/08 10:57:35;;;;;;;;;;;;;;;-139.48;100.00;61774.03;5013082;28;20108;-69
2021/12/08 11:00:28;;;;;;;20.83;14.63;;;;;;;-139.48;100.00;61774.03;5013798;28;20322;-69
2021/12/08 11:03:13;;;;;;;22.83;15.30;;;;;;;-139.48;100.00;61774.03;5013439;28;20145;-69
2021/12/08 11:06:01;;;;;;;21.60;14.15;;;;;;;-139.48;100.00;61774.03;5013350;28;20262;-69
2021/12/08 11:08:47;;;;;;;20.92;13.05;;;;;;;-139.48;100.00;61774.03;4998322;28;20125;-68
2021/12/08 11:11:32;;;;;;;19.50;14.73;;;;;;;-139.48;100.00;61774.03;5012316;28;20132;-69
2021/12/08 11:14:16;;;;;;;22.15;13.90;;;;;;;-139.48;100.00;61774.03;4998302;28;20052;-69
2021/12/08 11:17:00;;;;;;;24.17;14.23;;;;;;;-139.48;100.00;61774.03;5012104;28;20045;-69
2021/12/08 11:19:46;;;;;;;21.25;13.43;;;;;;;-139.48;100.00;61774.03;5012056;28;20053;-69
2021/12/08 11:22:30;;;;;;;21.48;14.55;;;;;;;-139.48;100.00;61774.03;5013134;28;20549;-69
2021/12/08 11:25:31;;;;;;;24.52;13.98;;;;;;;-139.48;100.00;61774.03;5012312;28;20045;-69
2021/12/08 11:28:29;;;;;;;21.08;12.98;;;;;;;-139.48;100.00;61774.03;5011960;28;20045;-69
2021/12/08 11:31:16;;;;;;;20.02;12.85;;;;;;;-139.48;100.00;61774.03;4998289;28;20048;-69
2021/12/08 11:34:03;;;;;;;19.38;13.63;;;;;;;-139.48;100.00;61774.03;5012083;28;20068;-69
2021/12/08 11:36:56;;;;;;;18.40;13.20;;;;;;;-139.48;100.00;61774.03;5011900;28;20056;-69
2021/12/08 11:39:43;;;;;;;19.52;13.63;;;;;;;-139.48;100.00;61774.03;5011697;28;20518;-69
2021/12/08 11:42:35;;;;;;;17.55;11.52;;;;;;;-139.48;100.00;61774.03;5012042;28;20509;-69
2021/12/08 11:45:18;;;;;;;17.77;11.77;;;;;;;-139.48;100.00;61774.03;5011907;28;20045;-69
2021/12/08 11:48:04;;;;;;;19.98;12.45;;;;;;;-139.48;100.00;61774.03;5011807;28;20048;-69
2021/12/08 11:50:48;;;;;;;16.98;11.82;;;;;;;-139.48;100.00;61774.03;5012277;28;20463;-69
2021/12/08 11:53:31;;;;;;;16.92;12.07;;;;;;;-139.48;100.00;61774.03;5011767;28;20052;-69
2021/12/08 11:56:32;;;;;;;17.52;11.55;;;;;;;-139.48;100.00;61774.03;5011821;28;20099;-68
2021/12/08 11:59:16;;;;;;;16.98;11.75;;;;;;;-139.48;100.00;61774.03;5011619;28;20152;-68
2021/12/08 12:02:00;;;;;;;17.60;11.35;;;;;;;-139.48;100.00;61774.03;5011911;28;20096;-68
2021/12/08 12:04:45;;;;;;;16.20;11.25;;;;;;;-139.48;100.00;61774.03;4998041;28;20056;-69
2021/12/08 12:07:29;;;;;;;15.73;10.95;;;;;;;-139.48;100.00;61774.03;5012080;28;20053;-68
2021/12/08 12:10:14;;;;;;;;;;;;;;;-139.48;100.00;61774.03;5011956;28;20513;-68
2021/12/08 12:12:59;;;;;;;18.10;11.93;;;;;;;-139.48;100.00;61774.03;5011602;28;20294;-68
2021/12/08 12:15:47;;;;;;;16.70;11.43;;;;;;;-139.48;100.00;61774.03;5011609;28;20104;-68
2021/12/08 12:18:32;;;;;;;16.27;10.57;;;;;;;-139.48;100.00;61774.03;5011441;28;20072;-68
2021/12/08 12:21:30;;;;;;;19.70;12.45;;;;;;;-139.48;100.00;61774.03;5011736;28;20061;-68
2021/12/08 12:24:32;;;;;;;15.55;10.85;;;;;;;-139.48;100.00;61774.03;5011647;28;20617;-68
2021/12/08 12:27:38;;;;;;;17.40;12.80;;;;;;;-139.48;100.00;61774.03;5012490;28;20076;-68
2021/12/08 12:30:37;;;;;;;21.15;11.55;;;;;;;-139.48;100.00;61774.03;5011907;28;20430;-69
2021/12/08 12:33:22;;;;;;;18.67;12.43;;;;;;;-139.48;100.00;61774.03;5012610;28;20057;-68
2021/12/08 12:36:23;;;;;;;18.15;12.07;;;;;;;-139.48;100.00;61774.03;5001257;28;20045;-68
2021/12/08 12:39:13;;;;;;;17.33;11.77;;;;;;;-139.48;100.00;61774.03;5001385;28;20048;-69
2021/12/08 12:42:15;;;;;;;18.55;12.20;;;;;;;-139.48;100.00;61774.03;5001659;28;20044;-68
2021/12/08 12:44:59;;;;;;;20.90;12.07;;;;;;;-139.48;100.00;61774.03;5015206;28;20061;-68
2021/12/08 12:48:09;;;;;;;18.27;12.48;;;;;;;-139.48;100.00;61774.03;5014944;28;20048;-68
2021/12/08 12:50:59;;;;;;;18.55;12.27;;;;;;;-139.48;100.00;61774.03;5015816;28;20052;-68
2021/12/08 12:53:56;;;;;;;20.00;11.77;;;;;;;-139.48;100.00;61774.03;5001443;28;20053;-68
2021/12/08 12:56:40;;;;;;;15.55;11.38;;;;;;;-139.48;100.00;61774.03;5014856;28;20105;-68
2021/12/08 12:59:37;;;;;;;20.65;13.10;;;;;;;-139.48;100.00;61774.03;5015557;28;20053;-68
2021/12/08 13:02:27;;;;;;;16.38;12.07;;;;;;;-139.48;100.00;61774.03;5014675;28;20049;-68
2021/12/08 13:05:12;;;;;;;18.20;11.55;;;;;;;-139.48;100.00;61774.03;5015559;28;20052;-68
2021/12/08 13:07:58;;;;;;;18.27;12.75;;;;;;;-139.48;100.00;61774.03;5015931;28;20064;-68